Menado / Dr. Sam Ratulangi, Indonesia

5:15 AM WITA on January 18, 2017 (GMT +0800)
Ratulangi | | Change Station

Elev 262 ft 1.53 °N, 124.92 °E | Updated 15 minutes ago

Clear
Clear
75 °F
Feels Like 75 °F
N
1
Wind Variable Wind from Variable

Today
High -- | Low -- °F
--% Chance of Precip.
Yesterday
High -- | Low -- °F
Precip. -- in
Pressure 29.89 in
Visibility 5.6 miles
Clouds Few 2200 ft
Dew Point 75 °F
Humidity 100%
Rainfall 0.00 in
Snow Depth Not available.
5:49 AM 5:52 PM
Waning Gibbous, 69% visible
METAR WAMM 172100Z VRB01KT 9000 FEW022 24/24 Q1012 NOSIG
Pressure 29.89 in
Visibility 5.6 miles
Clouds Few 2200 ft
Dew Point 75 °F
Humidity 100%
Rainfall 0.00 in
Snow Depth Not available.
5:49 AM 5:52 PM
Waning Gibbous, 69% visible
METAR WAMM 172100Z VRB01KT 9000 FEW022 24/24 Q1012 NOSIG

Get Your Daily Forecast Email!

Thanks for signing up!

Be on the lookout for a verification email in your inbox.

You'll start receiving the daily forecast at 8 AM.

×

10-Day Weather Forecast

×

Almanac

Astronomy

Jan. 18, 2017 Rise Set
Actual Time
Civil Twilight
Nautical Twilight
Astronomical Twilight
Moon
Length of Visible Light
Length of Day
Tomorrow will be .
, % of the Moon is Illuminated

Today's Extremes

Country Highs Country Lows

Community

WunderPhotos

Upload Photos

1,962,540 photos uploaded!

WunderBlog® & News

Nearby

Air Quality

  Air Quality AQ Index Pollutant
Not available.

Snow Depth

Station Depth Elevation

Earthquake Activity

City Distance Mag. Time & Date
Minimum magnitude displayed is 2.5.

Coastal Water Temperatures

Place Temperature

Stations

Nearby Weather Stations

Station Location Temp. Windchill Dew Point Humidity Wind Precip. Elev Updated Type